Time;durP1;ratioP1;P1;durP2;ratioP2;P2;SDS_P1;SDS_P2;PMS_P1;PMS_P2;Temp;Humidity;BMP_temperature;BMP_pressure;BME280_temperature;BME280_humidity;BME280_pressure;Samples;Min_cycle;Max_cycle;Signal;HPM_P1;HPM_P2
2022/03/21 00:00:30;;;;;;;17.73;10.43;;;6.70;90.60;;;;;;5050277;28;20261;-76
2022/03/21 00:02:57;;;;;;;17.93;10.60;;;6.70;90.70;;;;;;5048056;28;20167;-76
2022/03/21 00:05:23;;;;;;;14.83;9.33;;;6.70;90.70;;;;;;5059169;28;20210;-76
2022/03/21 00:07:49;;;;;;;16.23;10.73;;;6.70;90.50;;;;;;5069280;28;20213;-76
2022/03/21 00:10:15;;;;;;;17.10;9.67;;;6.70;90.60;;;;;;5044596;28;20282;-76
2022/03/21 00:12:41;;;;;;;13.20;9.30;;;6.70;90.60;;;;;;5070358;28;20218;-76
2022/03/21 00:15:11;;;;;;;16.00;10.20;;;6.60;90.60;;;;;;5053460;28;20195;-77
2022/03/21 00:17:40;;;;;;;15.37;9.97;;;6.60;90.60;;;;;;5055176;28;20214;-75
2022/03/21 00:20:10;;;;;;;18.00;9.60;;;6.70;90.60;;;;;;5062070;28;20212;-75
2022/03/21 00:22:37;;;;;;;18.43;9.93;;;6.60;90.60;;;;;;5067431;28;20222;-76
2022/03/21 00:25:05;;;;;;;18.20;9.97;;;6.60;90.70;;;;;;5072929;28;20275;-76
2022/03/21 00:27:35;;;;;;;16.13;9.63;;;6.50;90.80;;;;;;5051689;28;20242;-76
2022/03/21 00:30:00;;;;;;;16.73;10.20;;;6.50;90.90;;;;;;5074664;28;20183;-76
2022/03/21 00:32:26;;;;;;;18.47;10.07;;;6.50;91.40;;;;;;5047946;28;20295;-76
2022/03/21 00:34:52;;;;;;;16.50;9.43;;;6.50;91.40;;;;;;5054670;28;20257;-75
2022/03/21 00:37:17;;;;;;;15.40;10.30;;;6.40;91.50;;;;;;5060132;28;20220;-75
2022/03/21 00:39:43;;;;;;;17.57;10.60;;;6.40;91.60;;;;;;5068171;28;20288;-76
2022/03/21 00:42:10;;;;;;;17.40;9.63;;;6.30;91.70;;;;;;5058146;28;20195;-75
2022/03/21 00:44:36;;;;;;;18.60;10.93;;;6.30;91.70;;;;;;5035835;28;20214;-76
2022/03/21 00:47:03;;;;;;;16.50;9.57;;;6.20;91.70;;;;;;5035984;28;20235;-76
2022/03/21 00:49:28;;;;;;;17.50;10.53;;;6.30;92.00;;;;;;5067860;28;20220;-77
2022/03/21 00:51:54;;;;;;;16.03;9.93;;;6.20;92.00;;;;;;5053724;28;20208;-77
2022/03/21 00:54:19;;;;;;;19.97;10.33;;;6.20;92.10;;;;;;5053653;28;20209;-76
2022/03/21 00:56:44;;;;;;;17.87;11.60;;;6.10;92.10;;;;;;5036065;28;20201;-76
2022/03/21 00:59:10;;;;;;;22.23;10.87;;;6.10;92.30;;;;;;5052882;28;20206;-76
2022/03/21 01:01:35;;;;;;;16.43;10.73;;;6.10;92.20;;;;;;5053799;28;20711;-76
2022/03/21 01:04:01;;;;;;;17.97;11.07;;;6.10;92.30;;;;;;5053408;28;20277;-76
2022/03/21 01:06:26;;;;;;;18.20;9.70;;;6.00;92.40;;;;;;5035241;28;20215;-76
2022/03/21 01:08:52;;;;;;;19.27;9.80;;;6.10;92.30;;;;;;5034951;28;20182;-76
2022/03/21 01:11:17;;;;;;;16.87;10.60;;;6.10;92.70;;;;;;5053257;28;20270;-76
2022/03/21 01:13:43;;;;;;;18.40;11.43;;;6.10;92.30;;;;;;5035016;28;20256;-76
2022/03/21 01:16:09;;;;;;;17.57;9.80;;;6.00;92.40;;;;;;5035013;28;20211;-76
2022/03/21 01:18:34;;;;;;;15.90;10.67;;;6.00;92.50;;;;;;5034409;28;20178;-76
2022/03/21 01:21:00;;;;;;;16.87;11.10;;;6.00;92.60;;;;;;5053653;28;20249;-76
2022/03/21 01:23:25;;;;;;;17.43;10.30;;;6.00;92.60;;;;;;5033578;28;20214;-76
2022/03/21 01:25:51;;;;;;;17.67;10.53;;;5.90;92.70;;;;;;5052968;28;20309;-76
2022/03/21 01:28:17;;;;;;;17.47;10.17;;;5.90;92.80;;;;;;5052830;28;20809;-76
2022/03/21 01:30:42;;;;;;;16.00;10.17;;;5.90;92.80;;;;;;5035154;28;20218;-76
2022/03/21 01:33:08;;;;;;;14.80;9.77;;;5.90;92.90;;;;;;5035636;28;20190;-76
2022/03/21 01:35:33;;;;;;;17.17;10.67;;;5.80;93.00;;;;;;5059573;22;20340;-74
2022/03/21 01:37:59;;;;;;;13.77;9.77;;;5.80;93.10;;;;;;5046279;28;20213;-76
2022/03/21 01:40:24;;;;;;;19.90;10.80;;;5.80;93.20;;;;;;5043072;28;20277;-76
2022/03/21 01:42:50;;;;;;;17.43;10.30;;;5.70;93.40;;;;;;5065041;28;20208;-77
2022/03/21 01:45:17;;;;;;;14.90;10.03;;;5.70;93.50;;;;;;5073212;28;20721;-77
2022/03/21 01:47:43;;;;;;;20.70;10.73;;;5.70;93.40;;;;;;5063896;28;20261;-77
2022/03/21 01:50:10;;;;;;;15.93;10.27;;;5.70;93.50;;;;;;5053758;28;20210;-78
2022/03/21 01:52:36;;;;;;;17.47;10.57;;;5.70;93.30;;;;;;5056083;28;20206;-78
2022/03/21 01:57:50;;;;;;;18.13;10.13;;;5.70;93.50;;;;;;5055728;28;20216;-77
2022/03/21 02:00:15;;;;;;;16.10;10.23;;;5.60;93.50;;;;;;5063992;28;20189;-76
2022/03/21 02:02:42;;;;;;;16.43;9.73;;;5.70;93.50;;;;;;5053964;28;20220;-77
2022/03/21 02:05:08;;;;;;;17.23;10.07;;;5.60;93.50;;;;;;5071906;28;20652;-76
2022/03/21 02:07:33;;;;;;;15.17;10.23;;;5.70;93.30;;;;;;5054375;28;20583;-77
2022/03/21 02:09:59;;;;;;;15.77;9.10;;;5.70;93.20;;;;;;5071445;28;20202;-77
2022/03/21 02:12:24;;;;;;;13.60;8.80;;;5.70;93.20;;;;;;5071767;28;20203;-77
2022/03/21 02:14:50;;;;;;;16.77;9.67;;;5.60;93.30;;;;;;5072406;28;20183;-77
2022/03/21 02:17:19;;;;;;;17.33;9.80;;;5.60;93.40;;;;;;5053866;28;20687;-77
2022/03/21 02:19:45;;;;;;;13.47;9.53;;;5.60;93.50;;;;;;5044476;28;20210;-77
2022/03/21 02:22:38;;;;;;;14.93;9.47;;;5.60;93.70;;;;;;5063482;28;20289;-77
2022/03/21 02:25:29;;;;;;;17.03;10.33;;;5.60;93.70;;;;;;5045473;28;20213;-76
2022/03/21 02:27:59;;;;;;;18.07;10.77;;;5.50;94.10;;;;;;5053408;28;20205;-76
2022/03/21 02:30:28;;;;;;;17.03;10.40;;;5.50;94.20;;;;;;5053459;28;20181;-77
2022/03/21 02:32:55;;;;;;;16.50;9.80;;;5.40;94.30;;;;;;5071849;28;20177;-76
2022/03/21 02:35:22;;;;;;;15.30;9.53;;;5.30;94.50;;;;;;5052878;28;20214;-75
2022/03/21 02:37:48;;;;;;;14.63;9.53;;;5.30;94.70;;;;;;5053101;28;20216;-77
2022/03/21 02:40:16;;;;;;;14.80;10.00;;;5.30;94.80;;;;;;5070986;28;20209;-77
2022/03/21 02:42:42;;;;;;;17.50;10.50;;;5.30;94.90;;;;;;5071169;28;20238;-77
2022/03/21 02:45:08;;;;;;;20.10;11.27;;;5.20;95.10;;;;;;5053784;28;20198;-76
2022/03/21 02:47:34;;;;;;;15.10;10.07;;;5.10;95.50;;;;;;5051203;28;20212;-77
2022/03/21 02:50:01;;;;;;;15.53;11.17;;;5.00;96.00;;;;;;5040605;28;20285;-77
2022/03/21 02:52:29;;;;;;;19.73;10.37;;;5.00;96.10;;;;;;5060184;28;20611;-77
2022/03/21 02:54:54;;;;;;;17.80;10.57;;;4.90;96.40;;;;;;5053119;28;20238;-76
2022/03/21 02:57:20;;;;;;;19.27;11.13;;;4.90;96.50;;;;;;5053185;28;20658;-77
2022/03/21 02:59:45;;;;;;;20.63;10.93;;;4.90;96.70;;;;;;5049482;28;20214;-77
2022/03/21 03:02:11;;;;;;;17.37;10.50;;;4.80;96.80;;;;;;5048507;28;20232;-78
2022/03/21 03:04:36;;;;;;;18.50;10.57;;;4.80;97.10;;;;;;5044793;28;20207;-78
2022/03/21 03:07:02;;;;;;;17.73;10.73;;;4.70;97.30;;;;;;5071209;28;20252;-77
2022/03/21 03:09:28;;;;;;;15.90;10.57;;;4.60;97.50;;;;;;5043884;28;20183;-76
2022/03/21 03:11:54;;;;;;;20.07;10.53;;;4.60;97.70;;;;;;5071592;28;20177;-77
2022/03/21 03:14:19;;;;;;;18.60;9.60;;;4.50;97.90;;;;;;5071020;28;20295;-77
2022/03/21 03:16:45;;;;;;;16.27;10.27;;;4.60;98.10;;;;;;5067562;28;20280;-76
2022/03/21 03:19:11;;;;;;;16.43;10.23;;;4.50;98.10;;;;;;5058154;28;20206;-76
2022/03/21 03:21:40;;;;;;;19.47;10.70;;;4.50;98.20;;;;;;5062008;28;20170;-77
2022/03/21 03:24:09;;;;;;;19.23;10.53;;;4.40;98.30;;;;;;5049288;28;20167;-76
2022/03/21 03:26:34;;;;;;;16.67;11.10;;;4.40;98.20;;;;;;5053627;28;20697;-76
2022/03/21 03:29:00;;;;;;;17.27;11.40;;;4.40;98.30;;;;;;5063718;28;20203;-76
2022/03/21 03:31:25;;;;;;;18.50;11.37;;;4.40;98.40;;;;;;5062074;28;20197;-77
2022/03/21 03:33:51;;;;;;;19.53;10.90;;;4.40;98.40;;;;;;5066823;28;20201;-77
2022/03/21 03:36:18;;;;;;;16.33;11.47;;;4.30;98.40;;;;;;5033081;28;20214;-76
2022/03/21 03:38:45;;;;;;;18.13;11.43;;;4.30;98.50;;;;;;5051767;28;20220;-77
2022/03/21 03:41:11;;;;;;;26.90;11.40;;;4.30;98.70;;;;;;5062284;28;20286;-77
2022/03/21 03:43:37;;;;;;;20.73;12.23;;;4.30;98.70;;;;;;5044009;28;20215;-76
2022/03/21 03:46:03;;;;;;;21.77;10.87;;;4.30;98.80;;;;;;5062153;28;20225;-76
2022/03/21 03:48:29;;;;;;;21.93;11.93;;;4.20;98.90;;;;;;5064147;28;20552;-76
2022/03/21 03:50:55;;;;;;;21.60;11.73;;;4.30;99.00;;;;;;5042688;28;20187;-77
2022/03/21 03:53:21;;;;;;;19.37;11.77;;;4.20;99.10;;;;;;5074768;28;20234;-74
2022/03/21 03:55:46;;;;;;;22.93;12.17;;;4.20;99.20;;;;;;5066160;28;20293;-76
2022/03/21 03:58:12;;;;;;;20.07;12.73;;;4.10;99.30;;;;;;5065779;28;20202;-76
2022/03/21 04:00:37;;;;;;;20.90;12.93;;;4.10;99.20;;;;;;5058660;28;20308;-76
2022/03/21 04:05:49;;;;;;;19.93;11.80;;;4.10;99.40;;;;;;5061466;28;20246;-75
2022/03/21 04:08:14;;;;;;;21.80;12.37;;;4.10;99.40;;;;;;5053675;28;20237;-76
2022/03/21 04:10:40;;;;;;;20.87;12.30;;;4.00;99.70;;;;;;5062371;28;21570;-75
2022/03/21 04:13:06;;;;;;;22.17;13.00;;;4.00;99.70;;;;;;5060459;28;20203;-75
2022/03/21 04:15:31;;;;;;;23.70;13.50;;;4.00;99.80;;;;;;5055873;28;20168;-75
2022/03/21 04:18:01;;;;;;;21.27;13.53;;;3.90;99.90;;;;;;5058847;28;20698;-72
2022/03/21 04:20:31;;;;;;;23.27;14.03;;;3.80;99.90;;;;;;5046673;28;20214;-76
2022/03/21 04:22:57;;;;;;;23.20;14.23;;;3.80;99.90;;;;;;5062210;28;20199;-77
2022/03/21 04:25:22;;;;;;;22.87;12.50;;;3.70;99.90;;;;;;5070064;28;20226;-75
2022/03/21 04:27:48;;;;;;;25.33;13.97;;;3.70;99.90;;;;;;5043737;28;20207;-76
2022/03/21 04:30:13;;;;;;;25.10;13.37;;;3.80;99.90;;;;;;5044109;28;20199;-76
2022/03/21 04:32:39;;;;;;;23.00;13.37;;;3.80;99.90;;;;;;5051108;28;20214;-77
2022/03/21 04:35:05;;;;;;;26.83;14.93;;;3.70;99.90;;;;;;5035828;28;20204;-76
2022/03/21 04:37:31;;;;;;;22.50;12.63;;;3.70;99.90;;;;;;5054659;28;20217;-77
2022/03/21 04:39:56;;;;;;;23.97;13.67;;;3.70;99.90;;;;;;5046687;28;21029;-77
2022/03/21 04:42:22;;;;;;;26.17;13.77;;;3.70;99.90;;;;;;5056854;28;20211;-75
2022/03/21 04:44:50;;;;;;;27.10;14.60;;;3.70;99.90;;;;;;5047809;28;20538;-76
2022/03/21 04:47:17;;;;;;;23.27;14.07;;;3.70;99.90;;;;;;5073441;28;20203;-77
2022/03/21 04:49:43;;;;;;;23.37;13.63;;;3.70;99.90;;;;;;5038069;28;20214;-76
2022/03/21 04:52:08;;;;;;;28.17;14.77;;;3.70;99.90;;;;;;5065142;28;20549;-76
2022/03/21 04:54:34;;;;;;;23.70;13.70;;;3.70;99.90;;;;;;5037079;28;20167;-75
2022/03/21 04:56:59;;;;;;;23.73;13.27;;;3.80;99.90;;;;;;5059294;28;20617;-76
2022/03/21 04:59:25;;;;;;;23.27;13.97;;;3.70;99.90;;;;;;5064048;28;20702;-76
2022/03/21 05:01:51;;;;;;;25.30;14.03;;;3.80;99.90;;;;;;5046212;28;20199;-75
2022/03/21 05:04:19;;;;;;;23.30;13.20;;;3.80;99.90;;;;;;5046957;28;20199;-75
2022/03/21 05:06:45;;;;;;;26.90;13.93;;;3.90;99.90;;;;;;5061272;28;20219;-76
2022/03/21 05:09:11;;;;;;;24.03;14.10;;;3.90;99.90;;;;;;5060957;28;20270;-75
2022/03/21 05:11:36;;;;;;;28.43;15.23;;;3.90;99.90;;;;;;5063415;28;20676;-74
2022/03/21 05:14:02;;;;;;;23.67;14.37;;;3.80;99.90;;;;;;5064585;28;20233;-76
2022/03/21 05:16:28;;;;;;;27.90;15.17;;;3.90;99.90;;;;;;5045252;28;20217;-75
2022/03/21 05:18:54;;;;;;;26.90;14.17;;;3.90;99.90;;;;;;5060333;28;20207;-75
2022/03/21 05:21:19;;;;;;;25.00;14.53;;;3.80;99.90;;;;;;5043242;28;20180;-75
2022/03/21 05:31:57;;;;;;;24.53;14.23;;;4.10;99.90;;;;;;5057236;28;20220;-76
2022/03/21 05:37:06;;;;;;;21.53;14.00;;;4.20;99.90;;;;;;5063897;28;20292;-74
2022/03/21 05:39:32;;;;;;;26.20;13.60;;;4.20;99.90;;;;;;5061733;28;20222;-74
2022/03/21 05:41:58;;;;;;;27.93;15.23;;;4.30;99.60;;;;;;5048426;28;20175;-75
2022/03/21 05:44:26;;;;;;;28.63;14.53;;;4.30;99.50;;;;;;5063451;28;20209;-75
2022/03/21 05:46:52;;;;;;;24.27;14.73;;;4.40;99.40;;;;;;5042605;28;20269;-75
2022/03/21 05:49:17;;;;;;;22.67;13.97;;;4.40;99.10;;;;;;5059717;28;20216;-75
2022/03/21 05:51:43;;;;;;;25.57;14.83;;;4.50;98.90;;;;;;5061152;28;20631;-75
2022/03/21 05:54:12;;;;;;;26.10;14.20;;;4.60;98.80;;;;;;5061211;28;20623;-76
2022/03/21 05:56:39;;;;;;;22.90;13.67;;;4.80;98.50;;;;;;5042777;28;20219;-76
2022/03/21 06:01:51;;;;;;;26.73;14.90;;;4.80;98.10;;;;;;5060661;28;20731;-75
2022/03/21 06:04:18;;;;;;;22.07;13.33;;;5.40;97.80;;;;;;5060250;28;20204;-76
2022/03/21 06:06:44;;;;;;;24.57;13.37;;;7.30;96.20;;;;;;5045250;28;20228;-76
2022/03/21 06:09:10;;;;;;;23.87;13.20;;;8.30;93.70;;;;;;5062957;28;20627;-76
2022/03/21 06:11:36;;;;;;;26.57;13.80;;;9.30;92.20;;;;;;5062942;28;20238;-76
2022/03/21 06:14:04;;;;;;;23.53;13.27;;;10.40;90.80;;;;;;5063745;28;20224;-76
2022/03/21 06:16:30;;;;;;;21.93;13.33;;;10.00;89.20;;;;;;5062553;28;20230;-76
2022/03/21 06:18:59;;;;;;;24.37;13.43;;;10.60;88.20;;;;;;5064199;28;20695;-76
2022/03/21 06:21:25;;;;;;;22.67;13.63;;;10.60;86.80;;;;;;5062950;28;20175;-76
2022/03/21 06:23:51;;;;;;;23.40;11.87;;;11.80;85.10;;;;;;5038769;28;20186;-76
2022/03/21 06:26:17;;;;;;;26.10;13.70;;;12.10;82.80;;;;;;5055852;28;20207;-76
2022/03/21 06:28:43;;;;;;;23.67;13.53;;;11.40;82.50;;;;;;5067657;28;20211;-76
2022/03/21 06:31:08;;;;;;;21.13;13.33;;;11.50;82.80;;;;;;5060351;28;20613;-77
2022/03/21 06:33:34;;;;;;;24.90;13.57;;;11.50;82.50;;;;;;5062748;28;20176;-76
2022/03/21 06:36:01;;;;;;;21.70;13.70;;;11.60;82.30;;;;;;5067811;28;20215;-76
2022/03/21 06:38:27;;;;;;;22.83;14.10;;;11.30;82.10;;;;;;5068984;28;20583;-76
2022/03/21 06:40:52;;;;;;;25.00;14.67;;;11.60;82.30;;;;;;5064801;28;20203;-76
2022/03/21 06:43:20;;;;;;;24.43;14.33;;;11.50;81.20;;;;;;5063975;28;20207;-76
2022/03/21 06:45:47;;;;;;;24.53;14.77;;;11.30;80.90;;;;;;5049600;28;20295;-76
2022/03/21 06:48:13;;;;;;;21.40;14.00;;;11.30;81.10;;;;;;5041408;28;20184;-77
2022/03/21 06:50:39;;;;;;;21.23;13.50;;;12.00;81.00;;;;;;5061875;28;20219;-76
2022/03/21 06:53:04;;;;;;;22.57;13.90;;;10.70;80.90;;;;;;5062871;28;20195;-75
2022/03/21 06:55:30;;;;;;;27.90;14.03;;;10.90;82.60;;;;;;5043667;28;20202;-77
2022/03/21 06:57:56;;;;;;;28.43;14.93;;;10.90;81.30;;;;;;5059399;28;20249;-77
2022/03/21 07:00:21;;;;;;;23.27;13.00;;;11.20;80.30;;;;;;5051106;28;20357;-76
2022/03/21 07:02:47;;;;;;;26.33;15.13;;;10.90;80.60;;;;;;5063527;28;20709;-77
2022/03/21 07:05:12;;;;;;;23.67;13.43;;;10.40;81.10;;;;;;5045035;28;20946;-77
2022/03/21 07:07:38;;;;;;;23.37;12.73;;;10.70;80.60;;;;;;5060001;28;20211;-76
2022/03/21 07:10:09;;;;;;;21.23;12.60;;;11.80;78.90;;;;;;5058942;28;20200;-77
2022/03/21 07:12:35;;;;;;;22.27;12.73;;;12.90;76.40;;;;;;5066916;28;20538;-77
2022/03/21 07:15:04;;;;;;;21.53;13.67;;;12.60;74.40;;;;;;5059591;28;20268;-78
2022/03/21 07:17:30;;;;;;;22.07;12.60;;;11.90;75.70;;;;;;5059032;28;20688;-77
2022/03/21 07:19:55;;;;;;;23.63;12.73;;;12.40;75.00;;;;;;5058628;28;20302;-78
2022/03/21 07:22:21;;;;;;;20.93;12.63;;;12.40;74.90;;;;;;5059148;28;20199;-75
2022/03/21 07:24:46;;;;;;;20.57;12.47;;;12.60;74.70;;;;;;5062526;28;20214;-77
2022/03/21 07:27:12;;;;;;;19.27;12.43;;;11.80;74.90;;;;;;5062950;28;20194;-78
2022/03/21 07:29:38;;;;;;;17.47;11.80;;;12.30;76.00;;;;;;5059268;28;20221;-77
2022/03/21 07:32:04;;;;;;;19.37;11.83;;;12.80;74.80;;;;;;5058976;28;20207;-78
2022/03/21 07:34:29;;;;;;;19.80;12.13;;;13.70;71.30;;;;;;5068622;28;20205;-77
2022/03/21 07:36:55;;;;;;;16.07;11.50;;;13.50;71.80;;;;;;5083977;22;20214;-77
2022/03/21 07:39:20;;;;;;;35.88;24.13;;;14.10;70.10;;;;;;5062532;28;20720;-77
2022/03/21 07:41:46;;;;;;;36.28;23.33;;;15.40;69.20;;;;;;5071021;28;20199;-77
2022/03/21 07:47:17;;;;;;;27.83;13.23;;;14.80;69.40;;;;;;5062891;28;20207;-76
2022/03/21 07:49:42;;;;;;;18.37;12.70;;;14.10;68.00;;;;;;5069206;28;20271;-77
2022/03/21 07:52:07;;;;;;;16.63;11.10;;;14.30;68.40;;;;;;5071572;28;20302;-75
2022/03/21 07:54:33;;;;;;;18.77;11.03;;;14.40;68.70;;;;;;5060523;28;21021;-75
2022/03/21 07:56:59;;;;;;;19.87;11.03;;;13.70;70.00;;;;;;5040891;28;20648;-75
2022/03/21 07:59:25;;;;;;;21.07;10.90;;;14.30;68.50;;;;;;5065417;28;20246;-76
2022/03/21 08:01:50;;;;;;;21.03;10.90;;;14.60;67.80;;;;;;5064203;28;20201;-76
2022/03/21 08:04:17;;;;;;;15.10;10.53;;;14.00;67.60;;;;;;5069941;28;20626;-77
2022/03/21 08:06:44;;;;;;;18.27;11.83;;;14.20;67.90;;;;;;5070998;28;20214;-77
2022/03/21 08:09:09;;;;;;;15.73;10.77;;;14.70;66.80;;;;;;5070296;28;20171;-78
2022/03/21 08:11:35;;;;;;;19.77;9.60;;;14.80;66.10;;;;;;5062357;28;20561;-79
2022/03/21 08:14:00;;;;;;;14.10;9.90;;;13.80;66.40;;;;;;5068831;28;20312;-80
2022/03/21 08:16:26;;;;;;;15.37;10.50;;;13.50;67.30;;;;;;5078387;28;20214;-79
2022/03/21 08:18:52;;;;;;;16.00;10.30;;;13.60;66.70;;;;;;5073323;28;20781;-77
2022/03/21 08:21:18;;;;;;;21.40;10.57;;;13.50;67.80;;;;;;5071514;28;20232;-78
2022/03/21 08:23:45;;;;;;;17.07;9.73;;;13.20;68.60;;;;;;5072204;28;20589;-78
2022/03/21 08:26:11;;;;;;;17.23;9.47;;;13.30;67.70;;;;;;5071040;28;20214;-81
2022/03/21 08:28:37;;;;;;;16.33;9.03;;;13.70;66.30;;;;;;5050979;28;20762;-78
2022/03/21 08:31:03;;;;;;;17.27;9.67;;;13.20;66.50;;;;;;5052498;28;20207;-73
2022/03/21 08:33:28;;;;;;;16.23;9.10;;;13.30;67.50;;;;;;5059578;28;20187;-72
2022/03/21 08:35:54;;;;;;;15.30;8.23;;;12.70;68.40;;;;;;5072993;28;20171;-73
2022/03/21 08:38:19;;;;;;;17.40;8.70;;;14.00;67.10;;;;;;5068225;28;20225;-73
2022/03/21 08:40:45;;;;;;;13.33;8.80;;;14.00;66.80;;;;;;5072081;28;20357;-72
2022/03/21 08:43:10;;;;;;;14.07;8.10;;;14.90;64.50;;;;;;5067686;28;20221;-72
2022/03/21 08:45:36;;;;;;;18.40;8.23;;;14.30;63.40;;;;;;5067851;28;20212;-72
2022/03/21 08:48:02;;;;;;;15.53;8.63;;;13.90;64.50;;;;;;5074109;28;20256;-72
2022/03/21 08:50:29;;;;;;;16.97;7.63;;;13.90;64.60;;;;;;5074295;28;20199;-72
2022/03/21 08:52:57;;;;;;;14.73;8.43;;;13.80;64.30;;;;;;5074135;28;20209;-73
2022/03/21 08:55:22;;;;;;;15.70;7.57;;;14.10;64.00;;;;;;5073985;28;20223;-72
2022/03/21 08:57:48;;;;;;;11.80;7.20;;;14.00;63.60;;;;;;5065891;28;20238;-72
2022/03/21 09:00:14;;;;;;;14.30;7.83;;;13.90;63.70;;;;;;5075354;28;20222;-72
2022/03/21 09:02:41;;;;;;;12.27;7.33;;;13.70;63.40;;;;;;5073962;28;20238;-71
2022/03/21 09:05:12;;;;;;;12.47;7.70;;;13.00;63.90;;;;;;5074455;28;20214;-72
2022/03/21 09:07:39;;;;;;;15.33;7.43;;;12.30;65.10;;;;;;5073986;28;20561;-72
2022/03/21 09:10:05;;;;;;;11.37;7.23;;;12.50;65.80;;;;;;5073509;28;20203;-72
2022/03/21 09:12:32;;;;;;;15.17;7.90;;;12.90;65.30;;;;;;5065832;28;20177;-72
2022/03/21 09:14:57;;;;;;;13.93;7.60;;;12.60;65.00;;;;;;5058455;28;20226;-73
2022/03/21 09:17:24;;;;;;;11.90;7.50;;;11.90;66.30;;;;;;5056163;28;20275;-79
2022/03/21 09:19:50;;;;;;;15.30;7.87;;;11.60;67.70;;;;;;5051563;28;20745;-77
2022/03/21 09:22:15;;;;;;;13.50;8.00;;;12.20;69.60;;;;;;5057488;28;20218;-78
2022/03/21 09:24:41;;;;;;;13.93;8.03;;;12.30;68.80;;;;;;5074822;28;20207;-78
2022/03/21 09:27:06;;;;;;;11.63;7.80;;;12.00;69.50;;;;;;5069430;28;20199;-78
2022/03/21 09:29:32;;;;;;;13.77;7.93;;;12.10;69.00;;;;;;5073025;28;20207;-76
2022/03/21 09:31:58;;;;;;;14.00;7.47;;;12.00;67.60;;;;;;5073097;28;20681;-76
2022/03/21 09:34:24;;;;;;;14.17;7.90;;;11.90;67.70;;;;;;5065561;28;20230;-73
2022/03/21 09:36:50;;;;;;;13.40;8.20;;;12.30;68.80;;;;;;5059224;28;20290;-77
2022/03/21 09:39:17;;;;;;;11.73;7.80;;;12.00;67.70;;;;;;5062301;28;20178;-78
2022/03/21 09:41:44;;;;;;;15.23;8.43;;;12.10;68.10;;;;;;5047626;28;20210;-77
2022/03/21 09:44:10;;;;;;;10.43;8.00;;;12.20;68.00;;;;;;5078933;28;20195;-78
2022/03/21 09:46:44;;;;;;;10.10;7.67;;;12.10;68.20;;;;;;5073373;28;20246;-77
2022/03/21 09:49:12;;;;;;;13.20;8.27;;;12.10;68.30;;;;;;5075382;28;20211;-75
2022/03/21 09:51:39;;;;;;;17.00;8.93;;;12.10;68.70;;;;;;5077211;28;20176;-77
2022/03/21 09:54:05;;;;;;;14.23;7.97;;;12.00;69.70;;;;;;5080817;28;20643;-80
2022/03/21 09:56:30;;;;;;;11.30;7.07;;;12.10;68.60;;;;;;5078812;28;20282;-80
2022/03/21 09:58:59;;;;;;;13.60;7.33;;;12.20;69.00;;;;;;5078995;28;20268;-78
2022/03/21 10:01:25;;;;;;;11.73;7.03;;;12.20;69.00;;;;;;5055571;28;20204;-79
2022/03/21 10:03:51;;;;;;;11.10;7.20;;;11.80;68.00;;;;;;5076064;28;20601;-80
2022/03/21 10:06:34;;;;;;;11.63;6.57;;;12.00;68.30;;;;;;5081444;28;20270;-79
2022/03/21 10:09:15;;;;;;;10.73;7.63;;;12.20;67.10;;;;;;5081739;28;20266;-85
2022/03/21 10:11:54;;;;;;;13.30;7.63;;;12.40;66.90;;;;;;5068969;28;20274;-79
2022/03/21 10:14:22;;;;;;;15.83;7.27;;;12.00;67.30;;;;;;5080115;28;20211;-79
2022/03/21 10:17:09;;;;;;;10.63;7.10;;;12.00;68.70;;;;;;5067835;28;20243;-79
2022/03/21 10:19:45;;;;;;;9.73;6.53;;;12.10;66.80;;;;;;5078975;28;20256;-77
2022/03/21 10:22:17;;;;;;;12.60;7.70;;;12.50;66.80;;;;;;5076894;28;20199;-78
2022/03/21 10:24:51;;;;;;;10.77;6.67;;;12.30;66.40;;;;;;5061195;28;20223;-79
2022/03/21 10:27:28;;;;;;;13.97;6.97;;;11.80;66.60;;;;;;5071485;28;20194;-80
2022/03/21 10:30:01;;;;;;;11.63;7.10;;;11.50;67.00;;;;;;5074170;28;20206;-76
2022/03/21 10:32:36;;;;;;;12.77;6.87;;;11.50;68.00;;;;;;5073968;28;20212;-76
2022/03/21 10:35:16;;;;;;;15.40;7.40;;;11.60;67.90;;;;;;5077289;28;20559;-76
2022/03/21 10:37:51;;;;;;;9.67;7.07;;;11.80;68.60;;;;;;5070085;28;20218;-79
2022/03/21 10:40:18;;;;;;;11.57;7.13;;;11.70;67.40;;;;;;5076402;28;20202;-80
2022/03/21 10:42:56;;;;;;;12.70;7.60;;;11.80;67.60;;;;;;5071063;28;20214;-77
2022/03/21 10:45:23;;;;;;;9.50;7.20;;;12.10;67.30;;;;;;5071614;28;20209;-80
2022/03/21 10:47:50;;;;;;;11.80;7.50;;;12.50;67.40;;;;;;5061389;28;20214;-76
2022/03/21 10:50:27;;;;;;;13.50;7.10;;;12.60;66.50;;;;;;5061020;28;20328;-77
2022/03/21 10:53:05;;;;;;;11.03;7.73;;;12.40;67.00;;;;;;5076564;28;20217;-75
2022/03/21 10:55:30;;;;;;;13.70;7.80;;;12.60;66.50;;;;;;5070766;28;20217;-78
2022/03/21 10:57:55;;;;;;;12.40;7.93;;;12.40;66.50;;;;;;5073940;28;20207;-77
2022/03/21 11:00:28;;;;;;;11.57;7.67;;;12.50;66.90;;;;;;5071362;28;20178;-76
2022/03/21 11:03:05;;;;;;;11.40;7.60;;;12.60;66.60;;;;;;5075063;28;20167;-79
2022/03/21 11:05:33;;;;;;;14.30;7.83;;;12.80;66.50;;;;;;5074302;28;20210;-75
2022/03/21 11:07:59;;;;;;;11.30;7.07;;;12.60;66.50;;;;;;5070693;28;20285;-72
2022/03/21 11:10:26;;;;;;;12.07;7.57;;;12.60;66.80;;;;;;5071148;28;20215;-73
2022/03/21 11:12:54;;;;;;;11.83;7.40;;;12.60;67.00;;;;;;5057926;28;20260;-75
2022/03/21 11:15:20;;;;;;;11.30;6.97;;;12.70;66.70;;;;;;5065292;28;20784;-75
2022/03/21 11:17:45;;;;;;;14.63;7.63;;;12.70;66.70;;;;;;5070568;28;20191;-72
2022/03/21 11:20:13;;;;;;;10.93;7.43;;;12.70;66.70;;;;;;5070915;28;20703;-75
2022/03/21 11:22:40;;;;;;;10.40;7.50;;;12.70;67.50;;;;;;5070703;28;20214;-77
2022/03/21 11:25:12;;;;;;;10.10;7.67;;;12.80;66.60;;;;;;5071062;28;20256;-75
2022/03/21 11:27:46;;;;;;;10.27;6.43;;;13.20;66.50;;;;;;5053071;28;20211;-74
2022/03/21 11:30:46;;;;;;;12.33;7.93;;;13.30;65.80;;;;;;5072279;28;20174;-77
2022/03/21 11:33:42;;;;;;;11.97;7.70;;;13.00;65.80;;;;;;5081193;28;20199;-71
2022/03/21 11:36:10;;;;;;;14.27;7.10;;;12.90;66.00;;;;;;5071686;28;20206;-72
2022/03/21 11:38:47;;;;;;;13.00;7.23;;;12.40;66.20;;;;;;5066754;28;20226;-74
2022/03/21 11:41:23;;;;;;;13.80;7.50;;;12.40;66.60;;;;;;5064894;28;20593;-75
2022/03/21 11:44:03;;;;;;;10.87;7.33;;;12.60;66.30;;;;;;5064246;28;20276;-73
2022/03/21 11:46:29;;;;;;;13.70;7.73;;;12.80;66.10;;;;;;5072541;28;20254;-77
2022/03/21 11:49:02;;;;;;;14.37;7.13;;;12.80;66.50;;;;;;5062492;28;20214;-75
2022/03/21 11:51:38;;;;;;;9.60;6.80;;;12.60;66.80;;;;;;5070219;28;20179;-76
2022/03/21 11:54:07;;;;;;;12.00;7.20;;;12.60;65.80;;;;;;5070370;28;20308;-75
2022/03/21 11:56:43;;;;;;;11.53;6.97;;;12.80;65.90;;;;;;5069921;28;20226;-77
2022/03/21 11:59:29;;;;;;;10.17;6.10;;;13.00;65.60;;;;;;5065056;28;20205;-76
2022/03/21 12:01:54;;;;;;;11.47;6.67;;;13.00;65.00;;;;;;5076018;28;20202;-78
2022/03/21 12:04:29;;;;;;;9.77;6.40;;;12.80;64.20;;;;;;5076145;28;20232;-75
2022/03/21 12:07:13;;;;;;;8.83;6.60;;;12.80;64.40;;;;;;5058909;28;20289;-75
2022/03/21 12:09:40;;;;;;;12.67;6.67;;;12.80;64.00;;;;;;5074754;28;20230;-78
2022/03/21 12:12:07;;;;;;;9.53;5.90;;;12.90;64.00;;;;;;5068169;28;20179;-73
2022/03/21 12:14:37;;;;;;;8.90;6.30;;;13.10;63.70;;;;;;5069847;28;20237;-77
2022/03/21 12:17:05;;;;;;;11.00;6.00;;;13.00;63.10;;;;;;5077431;28;20238;-77
2022/03/21 12:19:54;;;;;;;8.60;6.17;;;13.10;63.00;;;;;;5078901;28;20298;-78
2022/03/21 12:22:35;;;;;;;10.40;6.17;;;13.00;62.60;;;;;;5078300;28;20618;-76
2022/03/21 12:25:13;;;;;;;10.27;6.57;;;13.10;62.70;;;;;;5064710;28;20230;-76
2022/03/21 12:27:40;;;;;;;9.20;6.60;;;13.00;62.30;;;;;;5073148;28;21125;-77
2022/03/21 12:30:31;;;;;;;10.57;6.13;;;13.00;62.60;;;;;;5056859;28;20229;-77
2022/03/21 12:32:59;;;;;;;8.73;6.23;;;13.20;62.80;;;;;;5063416;28;20231;-76
2022/03/21 12:35:31;;;;;;;15.33;6.33;;;13.40;62.30;;;;;;5074496;28;20707;-76
2022/03/21 12:38:04;;;;;;;11.83;6.80;;;13.40;62.30;;;;;;5061648;28;20276;-80
2022/03/21 12:40:30;;;;;;;11.77;6.87;;;13.50;62.10;;;;;;5066030;28;20210;-76
2022/03/21 12:42:57;;;;;;;9.97;6.23;;;13.60;61.90;;;;;;5065680;28;20207;-76
2022/03/21 12:45:23;;;;;;;7.67;6.00;;;13.40;61.30;;;;;;5074180;28;20199;-77
2022/03/21 12:47:49;;;;;;;12.03;6.93;;;13.20;61.20;;;;;;5078346;28;20253;-80
2022/03/21 12:50:20;;;;;;;13.10;6.70;;;13.30;61.70;;;;;;5073948;28;20199;-76
2022/03/21 12:52:56;;;;;;;11.27;7.10;;;13.20;61.90;;;;;;5076173;28;20214;-76
2022/03/21 12:55:22;;;;;;;10.57;6.43;;;13.50;62.10;;;;;;5073307;28;20314;-79
2022/03/21 12:57:59;;;;;;;8.33;5.83;;;13.60;61.50;;;;;;5075803;28;20206;-77
2022/03/21 13:00:31;;;;;;;10.07;6.23;;;13.70;61.80;;;;;;5065465;28;20175;-76